Time;durP1;ratioP1;P1;durP2;ratioP2;P2;SDS_P1;SDS_P2;PMS_P1;PMS_P2;Temp;Humidity;BMP_temperature;BMP_pressure;BME280_temperature;BME280_humidity;BME280_pressure;Samples;Min_cycle;Max_cycle;Signal;HPM_P1;HPM_P2
2022/02/16 00:01:29;;;;;;;9.07;2.77;;;;;;;7.29;100.00;100197.78;5002852;28;20189;-73
2022/02/16 00:03:55;;;;;;;10.63;3.53;;;;;;;7.39;100.00;100187.63;5001422;28;20917;-75
2022/02/16 00:06:21;;;;;;;7.53;2.60;;;;;;;6.80;100.00;100119.44;4996133;28;20204;-74
2022/02/16 00:08:46;;;;;;;9.70;3.43;;;;;;;6.47;100.00;100100.47;4995971;28;20193;-72
2022/02/16 00:11:15;;;;;;;6.63;2.40;;;;;;;7.16;100.00;100182.50;4997423;28;20215;-74
2022/02/16 00:13:40;;;;;;;5.70;2.50;;;;;;;7.24;100.00;100185.03;5000309;28;20216;-72
2022/02/16 00:16:08;;;;;;;6.40;2.37;;;;;;;7.19;100.00;100182.13;4998342;28;20450;-72
2022/02/16 00:18:37;;;;;;;10.87;3.03;;;;;;;6.41;100.00;100066.59;4998287;28;20231;-72
2022/02/16 00:21:05;;;;;;;10.90;3.93;;;;;;;7.25;100.00;100176.00;4996186;28;20965;-73
2022/02/16 00:23:34;;;;;;;7.83;2.83;;;;;;;7.12;100.00;100167.91;4999594;28;20522;-74
2022/02/16 00:26:02;;;;;;;5.90;2.27;;;;;;;7.24;100.00;100161.84;5000479;28;20936;-73
2022/02/16 00:28:31;;;;;;;10.27;3.17;;;;;;;6.78;100.00;100089.50;4999185;28;20587;-72
2022/02/16 00:30:57;;;;;;;5.70;2.83;;;;;;;6.93;100.00;100143.53;4994365;28;20460;-74
2022/02/16 00:33:29;;;;;;;16.13;3.50;;;;;;;6.53;100.00;100091.72;4997731;28;21224;-74
2022/02/16 00:35:57;;;;;;;9.53;3.30;;;;;;;6.79;100.00;100101.78;4997918;28;20173;-73
2022/02/16 00:38:26;;;;;;;15.73;3.73;;;;;;;6.78;100.00;100114.28;5000160;28;21022;-74
2022/02/16 00:40:54;;;;;;;9.30;2.53;;;;;;;6.44;100.00;100060.91;4998888;28;20459;-73
2022/02/16 00:43:23;;;;;;;13.17;4.10;;;;;;;6.94;100.00;100131.03;4997074;28;20475;-75
2022/02/16 00:45:49;;;;;;;11.40;4.33;;;;;;;7.01;100.00;100134.59;4997489;28;20523;-73
2022/02/16 00:48:14;;;;;;;10.63;4.07;;;;;;;6.28;100.00;100020.19;4998687;28;20497;-75
2022/02/16 00:50:41;;;;;;;10.10;3.90;;;;;;;6.82;100.00;100090.75;4998750;28;20819;-73
2022/02/16 00:53:07;;;;;;;10.40;4.17;;;;;;;6.54;100.00;100054.25;4998439;28;20638;-74
2022/02/16 00:55:32;;;;;;;7.40;4.20;;;;;;;6.55;100.00;100057.72;5001707;28;20549;-74
2022/02/16 00:58:01;;;;;;;11.33;4.10;;;;;;;6.73;100.00;100075.91;4997226;28;20436;-73
2022/02/16 01:00:26;;;;;;;10.50;4.13;;;;;;;6.95;100.00;100096.19;4997700;28;20186;-74
2022/02/16 01:02:52;;;;;;;14.20;4.40;;;;;;;6.85;100.00;100082.34;4997342;28;20811;-74
2022/02/16 01:05:18;;;;;;;8.33;4.57;;;;;;;6.71;100.00;100041.47;4997706;28;20219;-75
2022/02/16 01:07:43;;;;;;;9.30;4.30;;;;;;;6.33;100.00;100016.94;4997914;28;20444;-74
2022/02/16 01:10:09;;;;;;;10.13;3.73;;;;;;;6.41;100.00;100022.13;5000648;28;20211;-75
2022/02/16 01:12:35;;;;;;;11.83;4.70;;;;;;;7.02;100.00;100090.91;5000478;28;20212;-76
2022/02/16 01:15:01;;;;;;;10.27;3.83;;;;;;;6.33;100.00;100004.47;4997718;28;20569;-73
2022/02/16 01:17:27;;;;;;;9.63;4.30;;;;;;;6.50;100.00;100009.50;5003321;28;20185;-75
2022/02/16 01:19:53;;;;;;;9.10;4.50;;;;;;;6.25;100.00;99963.81;4996894;28;20455;-77
2022/02/16 01:22:18;;;;;;;7.70;4.00;;;;;;;6.87;100.00;100076.84;4999232;28;20216;-75
2022/02/16 01:24:44;;;;;;;13.07;5.27;;;;;;;6.24;100.00;99991.47;5000047;28;20379;-75
2022/02/16 01:27:09;;;;;;;7.87;4.63;;;;;;;6.56;100.00;100028.19;5000256;28;20189;-75
2022/02/16 01:29:35;;;;;;;7.50;4.43;;;;;;;5.80;100.00;99912.59;5000128;28;20208;-74
2022/02/16 01:32:00;;;;;;;9.70;4.17;;;;;;;6.36;100.00;99976.59;5003569;28;20220;-73
2022/02/16 01:34:26;;;;;;;11.83;4.40;;;;;;;6.51;100.00;100006.66;5002284;28;20212;-74
2022/02/16 01:36:51;;;;;;;21.33;4.57;;;;;;;6.53;100.00;100023.25;4999504;28;20197;-71
2022/02/16 01:39:20;;;;;;;13.30;5.13;;;;;;;6.23;100.00;99960.53;4996350;28;20204;-72
2022/02/16 01:41:45;;;;;;;10.33;4.80;;;;;;;6.52;100.00;100004.81;5000704;28;20651;-76
2022/02/16 01:44:14;;;;;;;12.97;6.00;;;;;;;6.48;100.00;100004.38;4996567;28;20478;-75
2022/02/16 01:46:57;;;;;;;10.20;5.87;;;;;;;6.07;100.00;99909.16;4996533;28;20356;-75
2022/02/16 01:49:26;;;;;;;11.20;6.00;;;;;;;6.59;100.00;99980.88;4994572;28;20559;-74
2022/02/16 01:51:51;;;;;;;12.70;7.47;;;;;;;6.81;100.00;100019.81;4996522;28;20895;-74
2022/02/16 01:54:20;;;;;;;15.67;9.50;;;;;;;6.39;100.00;99946.91;4995380;28;20537;-75
2022/02/16 01:56:47;;;;;;;16.33;10.60;;;;;;;6.84;100.00;100007.94;4995771;28;20566;-72
2022/02/16 01:59:22;;;;;;;15.87;8.90;;;;;;;6.51;100.00;99957.91;4995052;28;20570;-74
2022/02/16 02:01:48;;;;;;;14.63;7.77;;;;;;;6.65;100.00;100010.22;4997803;28;20828;-75
2022/02/16 02:04:15;;;;;;;12.83;6.97;;;;;;;6.36;100.00;99914.53;4994603;28;20491;-73
2022/02/16 02:06:40;;;;;;;14.73;6.40;;;;;;;6.09;100.00;99880.53;4994066;28;20444;-72
2022/02/16 02:09:06;;;;;;;11.90;5.50;;;;;;;6.50;100.00;99950.91;4998912;28;20450;-73
2022/02/16 02:11:32;;;;;;;12.63;5.60;;;;;;;6.30;100.00;99886.81;5001284;28;20196;-73
2022/02/16 02:13:59;;;;;;;11.70;5.90;;;;;;;6.66;100.00;99952.47;4997596;28;20301;-73
2022/02/16 02:16:25;;;;;;;11.20;5.30;;;;;;;6.28;100.00;99878.22;4998163;28;20189;-73
2022/02/16 02:18:51;;;;;;;12.63;5.27;;;;;;;6.83;100.00;99961.78;5002393;28;20448;-74
2022/02/16 02:21:20;;;;;;;13.47;5.30;;;;;;;6.79;100.00;99958.69;5013211;28;20193;-74
2022/02/16 02:23:46;;;;;;;12.57;5.50;;;;;;;6.86;100.00;99953.41;4995998;28;20526;-74
2022/02/16 02:26:12;;;;;;;15.50;5.40;;;;;;;6.92;100.00;99947.28;4992771;28;20514;-73
2022/02/16 02:28:38;;;;;;;14.17;5.10;;;;;;;6.70;100.00;99933.19;4998471;28;20486;-73
2022/02/16 02:31:07;;;;;;;11.40;5.93;;;;;;;6.76;100.00;99923.59;4998469;28;20823;-73
2022/02/16 02:33:39;;;;;;;11.57;5.03;;;;;;;6.29;100.00;99877.19;4995481;28;20288;-74
2022/02/16 02:36:08;;;;;;;12.27;4.47;;;;;;;6.74;100.00;99941.63;4995115;28;20429;-74
2022/02/16 02:38:34;;;;;;;17.00;5.33;;;;;;;6.72;100.00;99943.69;4995362;28;20475;-73
2022/02/16 02:41:05;;;;;;;14.80;5.00;;;;;;;6.59;100.00;99890.28;4997487;28;20440;-73
2022/02/16 02:43:31;;;;;;;16.87;5.50;;;;;;;6.81;100.00;99926.50;4994727;28;20467;-74
2022/02/16 02:46:01;;;;;;;16.23;5.00;;;;;;;6.79;100.00;99923.22;4995881;28;20446;-74
2022/02/16 02:48:30;;;;;;;18.10;4.60;;;;;;;6.33;100.00;99843.81;4995447;28;20535;-75
2022/02/16 02:50:55;;;;;;;11.00;4.23;;;;;;;5.93;100.00;99758.38;4995000;28;21031;-73
2022/02/16 02:53:22;;;;;;;12.77;4.17;;;;;;;6.85;100.00;99905.59;4996461;28;20535;-73
2022/02/16 02:55:48;;;;;;;17.07;4.43;;;;;;;6.83;100.00;99916.47;4994440;28;20318;-73
2022/02/16 02:58:14;;;;;;;15.03;3.90;;;;;;;6.47;100.00;99858.03;4996590;28;20522;-73
2022/02/16 03:00:40;;;;;;;10.33;3.67;;;;;;;6.60;100.00;99878.63;4997415;28;20440;-74
2022/02/16 03:03:06;;;;;;;12.13;3.80;;;;;;;6.40;100.00;99834.03;4993131;28;20443;-74
2022/02/16 03:05:31;;;;;;;10.10;3.70;;;;;;;6.81;100.00;99902.53;4989276;28;21092;-73
2022/02/16 03:07:57;;;;;;;14.37;3.73;;;;;;;6.10;100.00;99766.88;4997472;28;20188;-77
2022/02/16 03:10:22;;;;;;;10.90;3.80;;;;;;;4.95;100.00;99616.47;4996409;28;20205;-73
2022/02/16 03:12:47;;;;;;;14.03;3.77;;;;;;;5.96;100.00;99779.28;4995340;28;20613;-73
2022/02/16 03:15:13;;;;;;;10.37;3.90;;;;;;;6.84;100.00;99879.97;4993584;28;20209;-73
2022/02/16 03:17:39;;;;;;;14.87;2.90;;;;;;;6.21;100.00;99779.63;5001199;28;20194;-75
2022/02/16 03:20:06;;;;;;;7.43;2.70;;;;;;;6.93;100.00;99873.47;5000107;28;20450;-74
2022/02/16 03:22:32;;;;;;;15.17;3.73;;;;;;;6.99;100.00;99868.16;5002186;28;20184;-73
2022/02/16 03:24:59;;;;;;;12.67;2.97;;;;;;;6.95;100.00;99864.25;4997155;28;20487;-74
2022/02/16 03:27:25;;;;;;;10.13;2.47;;;;;;;6.19;100.00;99741.75;5000762;28;20446;-74
2022/02/16 03:29:50;;;;;;;12.47;3.30;;;;;;;6.95;100.00;99850.09;5000747;28;20841;-74
2022/02/16 03:32:16;;;;;;;11.83;3.43;;;;;;;6.86;100.00;99851.28;4999231;28;20196;-74
2022/02/16 03:34:42;;;;;;;13.10;4.67;;;;;;;6.40;100.00;99764.78;4997597;28;20204;-75
2022/02/16 03:37:08;;;;;;;10.00;3.23;;;;;;;6.98;100.00;99842.50;4999354;28;20199;-73
2022/02/16 03:39:35;;;;;;;9.97;3.33;;;;;;;6.72;100.00;99799.78;5002604;28;20189;-76
2022/02/16 03:42:01;;;;;;;9.83;3.43;;;;;;;6.62;100.00;99777.97;4999889;28;20443;-74
2022/02/16 03:44:26;;;;;;;9.73;3.93;;;;;;;6.93;100.00;99834.28;4996620;28;21007;-74
2022/02/16 03:46:52;;;;;;;13.23;4.20;;;;;;;6.86;100.00;99814.78;5002665;28;20663;-74
2022/02/16 03:49:18;;;;;;;11.80;4.40;;;;;;;6.89;100.00;99811.72;5001124;28;20185;-75
2022/02/16 03:51:44;;;;;;;16.20;4.33;;;;;;;6.56;100.00;99760.94;5000506;28;20662;-76
2022/02/16 03:54:09;;;;;;;12.70;4.50;;;;;;;6.82;100.00;99805.53;5008723;23;20476;-71
2022/02/16 03:56:35;;;;;;;11.90;4.50;;;;;;;6.42;100.00;99719.28;5000804;28;20701;-72
2022/02/16 03:59:00;;;;;;;9.30;5.10;;;;;;;6.42;100.00;99722.81;4993631;28;20526;-72
2022/02/16 04:01:26;;;;;;;10.10;4.73;;;;;;;6.52;100.00;99714.44;4997324;28;20192;-72
2022/02/16 04:03:51;;;;;;;12.73;5.77;;;;;;;6.38;100.00;99704.75;5000253;28;20205;-72
2022/02/16 04:06:17;;;;;;;12.23;6.80;;;;;;;6.46;100.00;99699.25;4976992;28;20642;-72
2022/02/16 04:08:44;;;;;;;10.43;6.80;;;;;;;6.97;100.00;99768.03;4980293;28;20233;-72
2022/02/16 04:11:09;;;;;;;8.00;6.60;;;;;;;6.39;100.00;99656.59;4979107;28;20289;-71
2022/02/16 04:13:35;;;;;;;11.03;7.20;;;;;;;6.78;100.00;99717.16;4981234;28;21365;-71
2022/02/16 04:16:01;;;;;;;12.50;8.80;;;;;;;6.60;100.00;99690.28;4980107;28;20210;-72
2022/02/16 04:18:26;;;;;;;11.77;8.90;;;;;;;6.95;100.00;99730.13;4974610;28;20201;-71
2022/02/16 04:20:52;;;;;;;11.90;9.30;;;;;;;6.91;100.00;99696.88;4978498;28;20194;-72
2022/02/16 04:23:17;;;;;;;12.33;9.83;;;;;;;6.82;100.00;99664.25;4971850;28;20189;-72
2022/02/16 04:25:43;;;;;;;11.50;10.50;;;;;;;6.84;100.00;99648.91;4977437;28;20201;-70
2022/02/16 04:28:09;;;;;;;10.60;9.50;;;;;;;6.99;100.00;99648.72;4973690;28;20671;-70
2022/02/16 04:30:34;;;;;;;12.93;10.60;;;;;;;6.90;100.00;99640.09;4976877;28;20217;-70
2022/02/16 04:33:00;;;;;;;12.60;10.07;;;;;;;6.57;100.00;99570.78;4977318;28;20449;-71
2022/02/16 04:35:25;;;;;;;11.17;9.97;;;;;;;7.29;100.00;99649.13;4977740;28;20214;-71
2022/02/16 04:37:51;;;;;;;11.63;10.50;;;;;;;6.95;100.00;99626.16;4978457;28;20695;-70
2022/02/16 04:40:17;;;;;;;12.13;11.00;;;;;;;7.05;100.00;99645.22;4975107;28;20585;-70
2022/02/16 04:42:43;;;;;;;12.40;11.10;;;;;;;6.78;100.00;99583.91;4977722;28;20270;-71
2022/02/16 04:45:09;;;;;;;12.70;11.40;;;;;;;7.00;100.00;99613.84;4970092;28;20209;-71
2022/02/16 04:47:35;;;;;;;13.07;11.77;;;;;;;6.97;100.00;99619.59;4970892;28;20189;-71
2022/02/16 04:50:03;;;;;;;12.40;11.20;;;;;;;7.15;100.00;99628.81;4976482;28;21044;-71
2022/02/16 04:52:37;;;;;;;12.97;11.73;;;;;;;7.15;100.00;99642.97;4979004;28;20445;-70
2022/02/16 04:55:05;;;;;;;12.97;11.77;;;;;;;7.16;100.00;99619.78;4971434;28;20475;-70
2022/02/16 04:57:31;;;;;;;15.00;11.87;;;;;;;6.80;100.00;99578.38;4976171;28;20456;-70
2022/02/16 04:59:58;;;;;;;13.00;11.90;;;;;;;6.80;100.00;99559.72;4970862;28;21026;-70
2022/02/16 05:02:26;;;;;;;13.80;12.50;;;;;;;7.30;100.00;99652.63;4981729;28;20178;-70
2022/02/16 05:04:52;;;;;;;13.40;12.10;;;;;;;6.63;100.00;99526.53;4977459;28;20837;-70
2022/02/16 05:07:17;;;;;;;13.77;12.57;;;;;;;7.26;100.00;99606.84;4982013;28;20862;-70
2022/02/16 05:09:42;;;;;;;13.20;11.90;;;;;;;7.30;100.00;99618.75;4980151;28;20527;-69
2022/02/16 05:12:08;;;;;;;12.97;11.67;;;;;;;7.25;100.00;99598.03;4972982;28;20212;-69
2022/02/16 05:14:33;;;;;;;13.00;11.70;;;;;;;7.16;100.00;99569.13;4980632;28;20213;-70
2022/02/16 05:16:59;;;;;;;11.90;10.70;;;;;;;7.17;100.00;99552.09;4969925;28;20215;-70
2022/02/16 05:19:24;;;;;;;11.90;10.90;;;;;;;6.68;100.00;99473.41;4972714;28;20238;-70
2022/02/16 05:21:49;;;;;;;11.50;10.40;;;;;;;7.33;100.00;99575.66;4966421;28;20200;-70
2022/02/16 05:24:15;;;;;;;11.73;10.53;;;;;;;6.99;100.00;99526.88;4974054;28;20213;-69
2022/02/16 05:26:40;;;;;;;11.87;10.63;;;;;;;7.32;100.00;99568.69;4980367;28;20265;-69
2022/02/16 05:29:06;;;;;;;11.77;10.10;;;;;;;6.91;100.00;99508.44;4979940;28;20265;-70
2022/02/16 05:31:32;;;;;;;10.47;9.47;;;;;;;7.36;100.00;99553.09;4981936;28;20311;-70
2022/02/16 05:33:57;;;;;;;9.27;8.47;;;;;;;7.32;100.00;99552.69;4980614;28;20660;-71
2022/02/16 05:36:22;;;;;;;10.27;9.17;;;;;;;7.21;100.00;99532.81;4978257;28;20194;-70
2022/02/16 05:38:48;;;;;;;10.40;9.40;;;;;;;7.17;100.00;99520.91;4980173;28;20679;-69
2022/02/16 05:41:13;;;;;;;8.93;8.13;;;;;;;7.31;100.00;99521.69;4980112;28;20548;-70
2022/02/16 05:43:39;;;;;;;9.03;8.23;;;;;;;7.33;100.00;99529.50;4978602;28;20947;-69
2022/02/16 05:46:04;;;;;;;9.27;8.40;;;;;;;7.34;100.00;99533.78;4974937;28;20752;-69
2022/02/16 05:48:30;;;;;;;8.77;7.93;;;;;;;7.40;100.00;99525.75;4977935;28;20196;-69
2022/02/16 05:50:55;;;;;;;10.33;8.70;;;;;;;7.09;100.00;99481.16;4968110;28;20585;-70
2022/02/16 05:53:21;;;;;;;9.20;8.17;;;;;;;7.36;100.00;99502.41;4972395;28;20200;-70
2022/02/16 05:55:46;;;;;;;8.43;7.63;;;;;;;7.19;100.00;99475.38;4966648;28;20228;-70
2022/02/16 05:58:12;;;;;;;8.50;7.60;;;;;;;7.20;100.00;99450.31;4972099;28;20627;-70
2022/02/16 06:00:38;;;;;;;7.90;6.67;;;;;;;7.15;100.00;99444.81;4974549;28;20228;-69
2022/02/16 06:03:03;;;;;;;7.90;7.10;;;;;;;7.21;100.00;99434.13;4976398;28;20452;-71
2022/02/16 06:05:29;;;;;;;7.60;6.70;;;;;;;6.99;100.00;99400.78;4975840;28;20402;-70
2022/02/16 06:07:54;;;;;;;9.60;7.33;;;;;;;7.35;100.00;99434.91;4976846;28;20362;-70
2022/02/16 06:10:20;;;;;;;6.53;5.90;;;;;;;7.32;100.00;99437.16;4975805;28;20221;-69
2022/02/16 06:12:45;;;;;;;8.30;6.57;;;;;;;7.34;100.00;99427.91;4976255;28;21850;-70
2022/02/16 06:15:11;;;;;;;6.80;6.20;;;;;;;6.79;100.00;99323.53;4972167;28;20307;-70
2022/02/16 06:17:37;;;;;;;9.47;5.90;;;;;;;7.02;100.00;99357.69;4966487;28;20828;-70
2022/02/16 06:20:04;;;;;;;8.27;6.97;;;;;;;7.25;100.00;99397.19;4968106;28;20444;-70
2022/02/16 06:22:29;;;;;;;6.40;5.90;;;;;;;6.99;100.00;99350.13;4967397;28;20560;-70
2022/02/16 06:24:55;;;;;;;7.60;5.83;;;;;;;6.92;100.00;99312.84;4965200;28;20535;-70
2022/02/16 06:27:22;;;;;;;5.83;5.33;;;;;;;7.33;100.00;99369.47;4969285;28;20186;-70
2022/02/16 06:29:47;;;;;;;6.33;5.73;;;;;;;7.39;100.00;99365.94;4965702;28;20210;-70
2022/02/16 06:32:13;;;;;;;6.90;5.57;;;;;;;7.01;100.00;99295.56;4972538;28;20512;-70
2022/02/16 06:34:38;;;;;;;7.83;5.80;;;;;;;7.23;100.00;99328.06;4974288;28;20213;-71
2022/02/16 06:37:04;;;;;;;6.00;5.30;;;;;;;7.35;100.00;99330.88;4973325;28;20189;-71
2022/02/16 06:39:29;;;;;;;7.60;5.43;;;;;;;7.18;100.00;99284.41;4975037;28;20882;-70
2022/02/16 06:41:55;;;;;;;7.53;5.43;;;;;;;7.45;100.00;99320.53;4973138;28;20194;-71
2022/02/16 06:44:20;;;;;;;6.10;5.50;;;;;;;7.45;100.00;99317.88;4970113;28;20219;-71
2022/02/16 06:46:47;;;;;;;6.80;6.20;;;;;;;7.46;100.00;99306.19;4972165;28;20182;-70
2022/02/16 06:49:12;;;;;;;6.67;5.90;;;;;;;7.53;100.00;99310.66;4973738;28;20327;-70
2022/02/16 06:51:38;;;;;;;7.83;6.27;;;;;;;7.52;100.00;99317.84;4975198;28;21034;-70
2022/02/16 06:54:03;;;;;;;6.70;5.93;;;;;;;7.41;100.00;99283.84;4976147;28;20594;-70
2022/02/16 06:56:30;;;;;;;7.43;6.73;;;;;;;7.36;100.00;99249.81;4964802;28;20197;-71
2022/02/16 06:58:56;;;;;;;7.70;6.37;;;;;;;7.60;100.00;99288.19;4971835;28;21607;-71
2022/02/16 07:01:22;;;;;;;7.00;6.40;;;;;;;7.61;100.00;99279.19;4976976;28;20433;-71
2022/02/16 07:03:48;;;;;;;9.63;6.83;;;;;;;7.67;100.00;99269.50;4960546;28;20186;-71
2022/02/16 07:06:14;;;;;;;7.87;7.17;;;;;;;6.99;100.00;99171.50;4973944;28;20225;-69
2022/02/16 07:08:39;;;;;;;7.50;6.80;;;;;;;7.64;100.00;99267.25;4971919;28;20543;-71
2022/02/16 07:11:06;;;;;;;6.83;6.30;;;;;;;7.61;100.00;99247.16;4976276;28;20669;-71
2022/02/16 07:13:32;;;;;;;6.70;6.10;;;;;;;7.25;100.00;99187.31;4962678;28;20189;-69
2022/02/16 07:15:57;;;;;;;7.00;6.50;;;;;;;7.56;100.00;99225.66;4970929;28;20570;-69
2022/02/16 07:18:27;;;;;;;6.80;6.20;;;;;;;7.39;100.00;99176.53;4976357;28;20268;-68
2022/02/16 07:20:52;;;;;;;7.17;6.50;;;;;;;7.28;100.00;99175.38;4978288;28;20190;-68
2022/02/16 07:23:17;;;;;;;6.10;5.60;;;;;;;7.68;100.00;99229.22;4967839;28;20472;-70
2022/02/16 07:25:43;;;;;;;7.17;6.57;;;;;;;7.59;100.00;99206.53;4971915;28;20767;-69
2022/02/16 07:28:10;;;;;;;6.73;6.13;;;;;;;7.55;100.00;99183.16;4975853;28;20208;-69
2022/02/16 07:30:36;;;;;;;6.43;5.90;;;;;;;7.43;100.00;99178.56;4974266;28;20761;-69
2022/02/16 07:33:02;;;;;;;6.70;6.10;;;;;;;7.69;100.00;99190.00;4975051;28;20452;-69
2022/02/16 07:35:28;;;;;;;4.83;4.37;;;;;;;7.36;100.00;99128.97;4978691;28;20464;-70
2022/02/16 07:37:55;;;;;;;4.70;4.30;;;;;;;7.42;100.00;99144.91;4975452;28;20440;-69
2022/02/16 07:40:20;;;;;;;5.37;4.87;;;;;;;7.35;100.00;99125.50;4973376;28;20183;-69
2022/02/16 07:42:46;;;;;;;4.97;4.67;;;;;;;7.73;100.00;99172.53;4975100;28;20576;-69
2022/02/16 07:45:12;;;;;;;4.20;3.90;;;;;;;7.09;100.00;99053.72;4971610;28;20221;-70
2022/02/16 07:47:38;;;;;;;4.03;3.60;;;;;;;7.38;100.00;99114.38;4975668;28;20194;-69
2022/02/16 07:50:04;;;;;;;3.87;3.57;;;;;;;7.77;100.00;99147.03;4972149;28;20662;-69
2022/02/16 07:52:31;;;;;;;3.77;3.03;;;;;;;7.72;100.00;99138.84;4968664;28;20453;-70
2022/02/16 07:54:59;;;;;;;3.10;2.90;;;;;;;7.76;100.00;99136.59;4976320;28;20487;-70
2022/02/16 07:57:24;;;;;;;3.43;3.13;;;;;;;7.81;100.00;99139.38;4974782;28;20537;-69
2022/02/16 07:59:50;;;;;;;2.93;2.60;;;;;;;7.69;100.00;99097.44;4972513;28;20442;-69
2022/02/16 08:02:16;;;;;;;4.23;2.67;;;;;;;7.55;100.00;99065.75;4969166;28;20190;-69
2022/02/16 08:04:41;;;;;;;3.47;2.17;;;;;;;7.94;100.00;99125.88;4971960;28;20217;-69
2022/02/16 08:07:07;;;;;;;2.07;1.90;;;;;;;7.86;100.00;99110.97;4972107;28;20545;-69
2022/02/16 08:09:33;;;;;;;2.30;2.10;;;;;;;7.88;100.00;99119.59;4973009;28;20670;-69
2022/02/16 08:11:58;;;;;;;1.97;1.87;;;;;;;7.88;100.00;99100.91;4970161;28;20229;-69
2022/02/16 08:14:24;;;;;;;2.00;1.80;;;;;;;8.03;100.00;99124.53;4972182;28;20512;-70
2022/02/16 08:16:49;;;;;;;1.67;1.57;;;;;;;8.04;100.00;99133.38;4971017;28;20703;-69
2022/02/16 08:19:15;;;;;;;1.73;1.63;;;;;;;8.08;100.00;99121.22;4972391;28;20194;-69
2022/02/16 08:21:42;;;;;;;1.97;1.80;;;;;;;7.46;100.00;99014.56;4972944;28;20685;-69
2022/02/16 08:24:08;;;;;;;2.10;2.00;;;;;;;7.84;100.00;99064.19;4972737;28;20283;-70
2022/02/16 08:26:34;;;;;;;1.93;1.83;;;;;;;8.07;100.00;99096.38;4972068;28;20531;-69
2022/02/16 08:28:59;;;;;;;1.90;1.80;;;;;;;8.12;100.00;99093.00;4970203;28;21372;-69
2022/02/16 08:31:25;;;;;;;2.30;2.10;;;;;;;8.21;100.00;99097.00;4973354;28;20209;-69
2022/02/16 08:33:50;;;;;;;1.80;1.70;;;;;;;7.55;100.00;98994.56;4971057;28;20187;-69
2022/02/16 08:36:16;;;;;;;3.10;2.47;;;;;;;7.90;100.00;99026.75;4971416;28;20213;-70
2022/02/16 08:38:42;;;;;;;2.90;2.17;;;;;;;8.04;100.00;99040.75;4976565;28;20194;-70
2022/02/16 08:41:09;;;;;;;2.60;2.30;;;;;;;8.00;100.00;99042.22;4970079;28;20635;-69
2022/02/16 08:43:35;;;;;;;1.83;1.40;;;;;;;8.33;100.00;99073.00;4973313;28;20502;-69
2022/02/16 08:46:00;;;;;;;1.40;1.30;;;;;;;8.10;100.00;99028.31;4964696;28;20888;-69
2022/02/16 08:48:27;;;;;;;1.30;1.17;;;;;;;8.41;100.00;99071.91;4968736;28;20440;-69
2022/02/16 08:50:54;;;;;;;0.87;0.87;;;;;;;8.42;100.00;99071.69;4968411;28;20411;-69
2022/02/16 08:53:20;;;;;;;0.80;0.80;;;;;;;8.26;100.00;99057.06;4973390;28;20947;-69
2022/02/16 08:55:46;;;;;;;0.80;0.80;;;;;;;7.91;100.00;98966.97;4972923;28;20982;-69
2022/02/16 08:58:12;;;;;;;0.80;0.70;;;;;;;8.48;100.00;99036.03;4970982;28;20469;-69
2022/02/16 09:00:39;;;;;;;0.97;0.73;;;;;;;8.55;100.00;99059.97;4984575;28;20246;-70
2022/02/16 09:03:05;;;;;;;1.70;0.90;;;;;;;8.62;100.00;99057.19;4972251;28;20452;-69
2022/02/16 09:05:30;;;;;;;2.20;1.83;;;;;;;8.58;100.00;99046.97;4972308;28;20469;-69
2022/02/16 09:07:55;;;;;;;1.50;1.40;;;;;;;8.50;100.00;99017.91;4974285;28;20193;-70
2022/02/16 09:10:21;;;;;;;0.80;0.80;;;;;;;8.66;100.00;99040.47;4973967;28;20597;-69
2022/02/16 09:12:46;;;;;;;1.30;1.20;;;;;;;8.34;100.00;98995.31;4971889;28;20583;-70
2022/02/16 09:15:12;;;;;;;1.30;0.80;;;;;;;8.67;100.00;99035.94;4968757;28;20312;-70
2022/02/16 09:17:38;;;;;;;0.93;0.90;;;;;;;8.72;100.00;99068.97;4976362;28;20678;-69
2022/02/16 09:20:04;;;;;;;0.80;0.80;;;;;;;8.67;100.00;99031.41;4972222;28;20217;-69
2022/02/16 09:22:30;;;;;;;1.00;0.90;;;;;;;8.85;100.00;99057.22;4973287;28;20198;-70
2022/02/16 09:24:56;;;;;;;0.70;0.70;;;;;;;8.51;100.00;99010.72;4967637;28;20950;-70
2022/02/16 09:27:23;;;;;;;1.10;0.70;;;;;;;8.91;100.00;99061.69;4969739;28;20186;-70
2022/02/16 09:29:49;;;;;;;0.70;0.70;;;;;;;8.84;100.00;99042.25;4969992;28;21018;-71
2022/02/16 09:32:16;;;;;;;0.70;0.70;;;;;;;9.05;100.00;99056.91;4974596;28;20449;-70
2022/02/16 09:34:43;;;;;;;1.57;0.90;;;;;;;8.67;100.00;98995.84;4977354;28;21000;-70
2022/02/16 09:37:08;;;;;;;0.80;0.70;;;;;;;9.09;100.00;99060.75;4970946;28;21140;-70
2022/02/16 09:39:34;;;;;;;0.80;0.80;;;;;;;9.14;100.00;99068.91;4972126;28;20452;-70
2022/02/16 09:42:00;;;;;;;1.00;0.90;;;;;;;8.99;100.00;99052.47;4967628;28;20204;-70
2022/02/16 09:44:34;;;;;;;1.50;1.17;;;;;;;8.77;100.00;98990.75;4974151;28;20655;-71
2022/02/16 09:47:02;;;;;;;3.33;1.20;;;;;;;9.25;100.00;99068.06;4954804;28;20494;-71
2022/02/16 09:49:28;;;;;;;6.27;1.67;;;;;;;9.01;100.00;98994.22;4970103;28;20448;-71
2022/02/16 09:51:53;;;;;;;1.47;1.37;;;;;;;9.41;100.00;99047.81;4970807;28;20818;-71
2022/02/16 09:54:20;;;;;;;2.37;1.40;;;;;;;9.47;100.00;99051.41;4973505;28;20847;-71
2022/02/16 09:56:48;;;;;;;3.57;1.73;;;;;;;9.20;100.00;99006.44;4972738;28;20476;-70
2022/02/16 09:59:14;;;;;;;5.90;2.30;;;;;;;9.46;100.00;99044.44;4968167;28;20194;-70
2022/02/16 10:02:13;;;;;;;4.77;1.90;;;;;;;9.57;100.00;99051.63;4972167;28;20444;-71
2022/02/16 10:04:42;;;;;;;2.60;1.70;;;;;;;9.66;100.00;99057.41;4936028;28;20328;-70
2022/02/16 10:07:30;;;;;;;4.77;2.37;;;;;;;9.42;100.00;99011.16;4973598;28;20428;-71
2022/02/16 10:10:11;;;;;;;4.57;2.00;;;;;;;9.42;100.00;98998.59;4978096;28;20452;-71
2022/02/16 10:12:36;;;;;;;4.20;1.80;;;;;;;9.23;100.00;98946.31;4967038;28;20441;-71
2022/02/16 10:15:02;;;;;;;6.00;1.90;;;;;;;9.61;100.00;99015.31;4971991;28;20476;-70
2022/02/16 10:17:29;;;;;;;4.10;1.90;;;;;;;9.26;100.00;98954.66;4966205;28;20190;-71
2022/02/16 10:19:56;;;;;;;9.80;2.40;;;;;;;9.90;100.00;99040.25;4985279;28;20441;-71
2022/02/16 10:22:24;;;;;;;6.80;2.27;;;;;;;9.89;100.00;99022.56;4973740;28;20445;-71
2022/02/16 10:24:50;;;;;;;9.50;2.47;;;;;;;10.01;100.00;99019.00;4970232;28;21238;-71
2022/02/16 10:27:17;;;;;;;4.77;2.30;;;;;;;9.62;100.00;98941.19;4974831;28;20487;-71
2022/02/16 10:29:45;;;;;;;4.50;1.83;;;;;;;10.09;100.00;99016.75;4968585;28;20445;-70
2022/02/16 10:32:25;;;;;;;6.87;2.20;;;;;;;10.12;100.00;99021.63;4973991;28;20447;-70
2022/02/16 10:34:51;;;;;;;5.00;1.60;;;;;;;10.12;100.00;99037.72;4971937;28;20599;-70
2022/02/16 10:37:28;;;;;;;8.27;2.50;;;;;;;10.19;100.00;99030.34;4969516;28;20475;-71
2022/02/16 10:40:09;;;;;;;7.00;2.00;;;;;;;10.28;100.00;99033.50;4968174;28;20417;-71
2022/02/16 10:42:37;;;;;;;7.40;2.00;;;;;;;10.29;100.00;99053.84;4967698;28;20444;-71
2022/02/16 10:45:14;;;;;;;3.50;1.50;;;;;;;9.99;100.00;99005.06;4968745;28;20515;-71
2022/02/16 10:47:52;;;;;;;8.13;1.77;;;;;;;10.40;100.00;99068.25;4969260;28;20452;-72
2022/02/16 10:50:24;;;;;;;7.57;1.77;;;;;;;10.37;100.00;99052.66;4964938;28;20469;-71
2022/02/16 10:52:53;;;;;;;3.17;1.50;;;;;;;10.19;100.00;99018.81;4970223;28;20514;-70
2022/02/16 10:55:20;;;;;;;6.37;1.90;;;;;;;10.47;100.00;99052.03;4973860;28;20469;-70
2022/02/16 10:57:46;;;;;;;11.67;2.27;;;;;;;10.45;100.00;99057.63;4972528;28;20445;-70
2022/02/16 11:00:12;;;;;;;5.90;2.20;;;;;;;10.53;100.00;99056.41;4965501;28;21197;-71
2022/02/16 11:02:39;;;;;;;12.13;1.70;;;;;;;10.55;100.00;99070.41;4968269;28;20228;-74
2022/02/16 11:05:05;;;;;;;7.07;2.00;;;;;;;10.62;100.00;99069.19;4970315;28;20519;-71
2022/02/16 11:07:32;;;;;;;7.00;1.60;;;;;;;10.40;100.00;99036.09;4963919;28;20845;-70
2022/02/16 11:10:03;;;;;;;8.27;2.07;;;;;;;10.73;100.00;99075.56;4966820;28;20576;-69
2022/02/16 11:12:28;;;;;;;9.83;2.50;;;;;;;10.70;100.00;99043.84;4969917;28;20488;-69
2022/02/16 11:14:54;;;;;;;6.03;1.90;;;;;;;10.87;100.00;99054.56;4970937;28;20962;-71
2022/02/16 11:17:23;;;;;;;9.37;1.33;;;;;;;10.93;100.00;99058.16;4974935;28;20208;-72
2022/02/16 11:19:49;;;;;;;5.40;1.67;;;;;;;10.89;100.00;99057.84;4974602;28;20189;-72
2022/02/16 11:24:50;;;;;;;6.50;1.90;;;;;;;11.04;100.00;99054.56;4337130;26;20357;-68
2022/02/16 11:27:49;;;;;;;10.53;3.70;;;;;;;11.02;100.00;99049.47;5015810;28;20601;-69